1870 NOT_NAMED (1870101S07468)


IBTrACS version v04r00. Visit IBTrACS website for data access.
Please direct all questions to the IBTrACS Q and A forum

Storm track - Intensity - Wind Radii - Intensity Data - Source Data - All data

Summary Information

Storm ID 1870101S07468
Start Apr 10 18Z
End Apr 17 06Z
ATCF IDs
Track status Best track data.
Spur track This storm is a spur track associated with the main storm: 1870101S07108

Storm track plot

Map of storm track

Intensity plots

No Intensity information for this storm


Radial wind information

No radial wind information for this storm


Position and Intensity Table

BASIN ISO_TIME_________ NATURE LAT LON
degrees north degrees east
SI 1870-04-10 18:00:00 NR -6.80 107.50
SI 21:00:00 NR -7.05 107.11
SI 1870-04-11 00:00:00 NR -7.28 106.73
SI 03:00:00 NR -7.50 106.36
SI 06:00:00 NR -7.70 106.00
SI 09:00:00 NR -7.87 105.66
SI 12:00:00 NR -8.01 105.33
SI 15:00:00 NR -8.15 105.02
SI 18:00:00 NR -8.30 104.70
SI 21:00:00 NR -8.46 104.38
SI 1870-04-12 00:00:00 NR -8.63 104.06
SI 03:00:00 NR -8.81 103.73
SI 06:00:00 NR -9.00 103.40
SI 09:00:00 NR -9.21 103.04
SI 12:00:00 NR -9.43 102.68
SI 15:00:00 NR -9.66 102.33
SI 18:00:00 NR -9.90 102.00
SI 21:00:00 NR -10.15 101.69
SI 1870-04-13 00:00:00 NR -10.41 101.40
SI 03:00:00 NR -10.66 101.13
SI 06:00:00 NR -10.90 100.90
SI 09:00:00 NR -11.10 100.68
SI 12:00:00 NR -11.28 100.50
SI 15:00:00 NR -11.48 100.34
SI 18:00:00 NR -11.70 100.20
SI 21:00:00 NR -11.98 100.05
SI 1870-04-14 00:00:00 NR -12.28 99.93
SI 03:00:00 NR -12.59 99.84
SI 06:00:00 NR -12.90 99.80
SI 09:00:00 NR -13.18 99.80
SI 12:00:00 NR -13.46 99.85
SI 15:00:00 NR -13.73 99.92
SI 18:00:00 NR -14.00 100.00
SI 21:00:00 NR -14.29 100.06
SI 1870-04-15 00:00:00 NR -14.58 100.14
SI 03:00:00 NR -14.85 100.21
SI 06:00:00 NR -15.10 100.30
SI 09:00:00 NR -15.31 100.38
SI 12:00:00 NR -15.49 100.48
SI 15:00:00 NR -15.65 100.58
SI 18:00:00 NR -15.80 100.70
SI 21:00:00 NR -15.95 100.84
SI 1870-04-16 00:00:00 NR -16.09 100.99
SI 03:00:00 NR -16.24 101.15
SI 06:00:00 NR -16.40 101.30
SI 09:00:00 NR -16.59 101.43
SI 12:00:00 NR -16.79 101.56
SI 15:00:00 NR -17.00 101.68
SI 18:00:00 NR -17.20 101.80
SI 21:00:00 NR -17.39 101.92
SI 1870-04-17 00:00:00 NR -17.57 102.05
SI 03:00:00 NR -17.73 102.17
SI 06:00:00 NR -17.90 102.30

Source Information

Agency Information
USA
TOKYO
CMA
HKO
NEWDELHI
REUNION
BOM
NADI
WELLINGTON
DS824
TD9636 cons_worldwide_trop_cyclone_18710101-19891231-005:Line=1110
TD9635
NEUMANN
MLC

All available IBTrACS Data

SEASON BASIN SUBBASIN ISO_TIME_________ NATURE LAT LON DIST2LAND LANDFALL IFLAG USA SSHS TD9636 LAT TD9636 LON TD9636 STAGE STORM SPEED STORM DIR
Year degrees north degrees east km km 1 degrees north degrees east kts degrees
1870 SI WA 1870-04-10 18:00:00 NR -6.80 107.50 0 0 __________O___ -1 -6.80 107.50 7 9 237
1870 SI WA 21:00:00 NR -7.05 107.11 0 0 __________P___ -1 -7.05 107.11 7 9 238
1870 SI WA 1870-04-11 00:00:00 NR -7.28 106.73 0 0 __________P___ -1 -7.28 106.73 7 9 239
1870 SI WA 03:00:00 NR -7.50 106.36 11 11 __________P___ -1 -7.50 106.36 7 8 240
1870 SI WA 06:00:00 NR -7.70 106.00 55 55 __________O___ -1 -7.70 106.00 7 8 242
1870 SI WA 09:00:00 NR -7.87 105.66 95 95 __________P___ -1 -7.87 105.66 7 7 244
1870 SI WA 12:00:00 NR -8.01 105.33 134 134 __________P___ -1 -8.01 105.33 7 7 246
1870 SI WA 15:00:00 NR -8.15 105.02 158 158 __________P___ -1 -8.15 105.02 7 7 246
1870 SI WA 18:00:00 NR -8.30 104.70 176 176 __________O___ -1 -8.30 104.70 7 7 244
1870 SI WA 21:00:00 NR -8.46 104.38 209 209 __________P___ -1 -8.46 104.38 7 7 243
1870 SI WA 1870-04-12 00:00:00 NR -8.63 104.06 235 235 __________P___ -1 -8.63 104.06 7 7 242
1870 SI WA 03:00:00 NR -8.81 103.73 278 278 __________P___ -1 -8.81 103.73 7 8 240
1870 SI WA 06:00:00 NR -9.00 103.40 316 316 __________O___ -1 -9.00 103.40 7 8 239
1870 SI WA 09:00:00 NR -9.21 103.04 362 362 __________P___ -1 -9.21 103.04 7 8 239
1870 SI WA 12:00:00 NR -9.43 102.68 400 400 __________P___ -1 -9.43 102.68 7 8 237
1870 SI WA 15:00:00 NR -9.66 102.33 455 455 __________P___ -1 -9.66 102.33 7 8 235
1870 SI WA 18:00:00 NR -9.90 102.00 494 494 __________O___ -1 -9.90 102.00 7 8 232
1870 SI WA 21:00:00 NR -10.15 101.69 541 541 __________P___ -1 -10.15 101.69 7 8 229
1870 SI WA 1870-04-13 00:00:00 NR -10.41 101.40 580 580 __________P___ -1 -10.41 101.40 7 7 227
1870 SI WA 03:00:00 NR -10.66 101.13 627 627 __________P___ -1 -10.66 101.13 7 7 225
1870 SI WA 06:00:00 NR -10.90 100.90 659 659 __________O___ -1 -10.90 100.90 7 6 225
1870 SI WA 09:00:00 NR -11.10 100.68 690 690 __________P___ -1 -11.10 100.68 7 6 226
1870 SI WA 12:00:00 NR -11.28 100.50 721 721 __________P___ -1 -11.28 100.50 7 5 222
1870 SI WA 15:00:00 NR -11.48 100.34 752 752 __________P___ -1 -11.48 100.34 7 5 215
1870 SI WA 18:00:00 NR -11.70 100.20 776 776 __________O___ -1 -11.70 100.20 7 6 209
1870 SI WA 21:00:00 NR -11.98 100.05 807 807 __________P___ -1 -11.98 100.05 7 6 204
1870 SI WA 1870-04-14 00:00:00 NR -12.28 99.93 847 847 __________P___ -1 -12.28 99.93 7 7 198
1870 SI WA 03:00:00 NR -12.59 99.84 878 878 __________P___ -1 -12.59 99.84 7 6 192
1870 SI WA 06:00:00 NR -12.90 99.80 903 903 __________O___ -1 -12.90 99.80 7 6 183
1870 SI WA 09:00:00 NR -13.18 99.80 929 929 __________P___ -1 -13.18 99.80 7 6 175
1870 SI WA 12:00:00 NR -13.46 99.85 955 948 __________P___ -1 -13.46 99.85 7 6 168
1870 SI WA 15:00:00 NR -13.73 99.92 966 966 __________P___ -1 -13.73 99.92 7 6 165
1870 SI WA 18:00:00 NR -14.00 100.00 986 986 __________O___ -1 -14.00 100.00 7 6 166
1870 SI WA 21:00:00 NR -14.29 100.06 1008 1008 __________P___ -1 -14.29 100.06 7 6 167
1870 SI WA 1870-04-15 00:00:00 NR -14.58 100.14 1036 1030 __________P___ -1 -14.58 100.14 7 6 166
1870 SI WA 03:00:00 NR -14.85 100.21 1058 1058 __________P___ -1 -14.85 100.21 7 5 163
1870 SI WA 06:00:00 NR -15.10 100.30 1072 1072 __________O___ -1 -15.10 100.30 7 5 160
1870 SI WA 09:00:00 NR -15.31 100.38 1086 1086 __________P___ -1 -15.31 100.38 7 4 156
1870 SI WA 12:00:00 NR -15.49 100.48 1100 1100 __________P___ -1 -15.49 100.48 7 4 151
1870 SI WA 15:00:00 NR -15.65 100.58 1105 1105 __________P___ -1 -15.65 100.58 7 4 146
1870 SI WA 18:00:00 NR -15.80 100.70 1120 1120 __________O___ -1 -15.80 100.70 7 4 141
1870 SI WA 21:00:00 NR -15.95 100.84 1126 1126 __________P___ -1 -15.95 100.84 7 4 136
1870 SI WA 1870-04-16 00:00:00 NR -16.09 100.99 1137 1132 __________P___ -1 -16.09 100.99 7 4 134
1870 SI WA 03:00:00 NR -16.24 101.15 1141 1136 __________P___ -1 -16.24 101.15 7 4 136
1870 SI WA 06:00:00 NR -16.40 101.30 1150 1150 __________O___ -1 -16.40 101.30 7 4 142
1870 SI WA 09:00:00 NR -16.59 101.43 1164 1159 __________P___ -1 -16.59 101.43 7 5 148
1870 SI WA 12:00:00 NR -16.79 101.56 1174 1174 __________P___ -1 -16.79 101.56 7 5 150
1870 SI WA 15:00:00 NR -17.00 101.68 1190 1190 __________P___ -1 -17.00 101.68 7 5 151
1870 SI WA 18:00:00 NR -17.20 101.80 1205 1205 __________O___ -1 -17.20 101.80 7 5 149
1870 SI WA 21:00:00 NR -17.39 101.92 1221 1217 __________P___ -1 -17.39 101.92 7 4 147
1870 SI WA 1870-04-17 00:00:00 NR -17.57 102.05 1237 1233 __________P___ -1 -17.57 102.05 7 4 145
1870 SI WA 03:00:00 NR -17.73 102.17 1239 1239 __________P___ -1 -17.73 102.17 7 4 144
1870 SI WA 06:00:00 NR -17.90 102.30 1256 __________O___ -1 -17.90 102.30 7 4 144